Overview Statistics Trail Chart Weather Telemetry Raw packets
 

This is the latest recevied weather packets stored in our database for station/object Krauchnws. If no packets are shown the sender has not sent any weather packets the latest 10 day(s).

<< 16 17 18 19 >>
Time Temp. Humidity Pressure Rain* Wind** Luminosity Snow
1787772730 21.67° C 79% 1013 hPa 0.25 mm - - -
1787770931 21.67° C 75% 1012.8 hPa 0.25 mm - - -
1787769131 22.78° C 72% 1012.8 hPa 0.25 mm - - -
1787767330 24.44° C 63% 1012.7 hPa 0.25 mm - - -
1787765530 25.56° C 61% 1012.6 hPa 0.25 mm - - -
1787763731 26.11° C 57% 1012.6 hPa 0.25 mm - - -
1787761931 26.67° C 54% 1012.8 hPa 0.25 mm - - -
1787760131 27.78° C 53% 1013 hPa 0.25 mm - - -
1787758331 26.11° C 57% 1013 hPa 0.25 mm - - -
1787756530 26.67° C 54% 1013.1 hPa 0.25 mm - - -
1787754731 27.22° C 54% 1013.5 hPa 0.25 mm - - -
1787752930 27.78° C 57% 1014 hPa 0.25 mm - - -
1787751131 27.22° C 56% 1014.1 hPa 0.25 mm - - -
1787749330 26.67° C 55% 1014.3 hPa 0.25 mm - - -
1787747533 26.67° C 54% 1014.5 hPa 0.25 mm - - -
1787745730 25.56° C 57% 1014.7 hPa 0.25 mm - - -
1787743931 25° C 59% 1014.7 hPa 0.25 mm - - -
1787742134 24.44° C 67% 1014.8 hPa 0.25 mm - - -
1787740330 23.89° C 71% 1015.3 hPa 0.25 mm - - -
1787738530 22.78° C 82% 1015.5 hPa 0.25 mm - - -

* Rain since midnight (hover to see other rain measurements)
** Current wind speed in m/s (hover to see current wind gust speed)